»·PEaware :: N515ZT L88-KSBP

N515ZT :: L88-KSBP

FLIGHT INFORMATION

Flight Status: Arrived
Operator: Privately registered:
United States
More flights under this callsign
Pilot: Marty P. (27464)
Aircraft: BEECH AIRCRAFT BARON
(BE58)
More flights by this aircraft type
Origin: L88 New Cuyama
United States
Destination: KSBP San Luis Co Regl
United States
More flights between these airports :: More routes between these airports
Route: L88 SBP
File this flight plan on PilotEdge
Remarks: Use this for Cat 2 rating
Altitude:
(Current/Filed)
8,500ft
Speed:
(Current/Filed)
215kts
Departed: 07-Jan-20 08:39 PM
Arrived: 07-Jan-20 10:28 PM
Distance/Time
Traveled:
50nm/1:49
Distance/Time
To Go:
Arrived

Flight Plot

Page will automatically refresh every two minutes.


Map Options




Map Legend


Flown Route
Filed Route
Departure Airport
Arrival Airport
Navaid (VOR, NDB)
Fix

Horizontal Profiles

Position Reports

Time Latitude Longitude Heading Altitude Ground
Speed
07-Jan-20 20:31 34.943932 -119.690792 202 2207ft 0kts
07-Jan-20 20:32 34.943932 -119.690792 202 2207ft 0kts
07-Jan-20 20:33 34.943932 -119.690792 202 2207ft 0kts
07-Jan-20 20:34 34.943659 -119.690913 198 2207ft 7kts
07-Jan-20 20:35 34.942487 -119.691242 190 2207ft 11kts
07-Jan-20 20:36 34.939309 -119.684011 115 2207ft 39kts
07-Jan-20 20:37 34.937678 -119.680040 296 2207ft 0kts
07-Jan-20 20:38 34.939687 -119.684968 296 2207ft 96kts
07-Jan-20 20:39 34.949079 -119.708848 297 2782ft 122kts
07-Jan-20 20:40 34.959248 -119.734265 286 3510ft 121kts
07-Jan-20 20:41 34.964780 -119.762585 289 4266ft 118kts
07-Jan-20 20:42 34.972759 -119.789552 292 4987ft 116kts
07-Jan-20 20:43 34.980793 -119.815283 292 5675ft 114kts
07-Jan-20 20:44 34.988166 -119.838762 291 6304ft 111kts
07-Jan-20 20:45 34.995579 -119.862370 291 6952ft 107kts
07-Jan-20 20:46 35.003215 -119.886709 290 7624ft 104kts
07-Jan-20 20:47 35.010857 -119.911052 289 8408ft 108kts
07-Jan-20 20:48 35.019639 -119.939120 289 8763ft 137kts
07-Jan-20 20:49 35.031087 -119.975711 290 8321ft 167kts
07-Jan-20 20:50 35.041935 -120.010372 290 8343ft 164kts
07-Jan-20 20:51 35.054081 -120.049261 289 8321ft 164kts
07-Jan-20 20:52 35.065669 -120.086437 289 8332ft 164kts
07-Jan-20 20:53 35.073910 -120.112912 288 8332ft 164kts
07-Jan-20 20:54 35.080838 -120.135177 288 8326ft 163kts
07-Jan-20 20:55 35.089586 -120.163331 288 8330ft 163kts
07-Jan-20 20:56 35.098375 -120.191630 288 8399ft 159kts
07-Jan-20 20:57 35.106230 -120.216959 288 8442ft 157kts
07-Jan-20 20:58 35.113789 -120.241357 287 8499ft 159kts
07-Jan-20 20:59 35.121594 -120.266570 287 8510ft 161kts
07-Jan-20 21:00 35.130002 -120.293759 288 8305ft 173kts
07-Jan-20 21:01 35.139734 -120.325279 288 7533ft 184kts
07-Jan-20 21:02 35.149512 -120.356817 289 6693ft 171kts
07-Jan-20 21:03 35.158464 -120.385919 289 6563ft 163kts
07-Jan-20 21:04 35.166164 -120.410870 289 6535ft 165kts
07-Jan-20 21:05 35.173723 -120.435399 289 6529ft 165kts
07-Jan-20 21:06 35.181549 -120.460774 289 6431ft 157kts
07-Jan-20 21:07 35.187905 -120.483489 285 5629ft 158kts
07-Jan-20 21:08 35.192972 -120.506922 285 4823ft 116kts
07-Jan-20 21:09 35.197566 -120.526105 286 3964ft 121kts
07-Jan-20 21:10 35.201540 -120.543170 281 2931ft 121kts
07-Jan-20 21:11 35.202135 -120.560828 276 1940ft 117kts
07-Jan-20 21:12 35.205330 -120.578116 289 1443ft 111kts
07-Jan-20 21:13 35.210194 -120.594853 283 1630ft 104kts
07-Jan-20 21:42 34.943932 -119.690792 202 2207ft 0kts
07-Jan-20 21:43 34.942895 -119.691035 199 2207ft 12kts
07-Jan-20 21:44 34.941770 -119.690030 116 2207ft 24kts
07-Jan-20 21:45 34.939193 -119.683728 115 2207ft 34kts
07-Jan-20 21:46 34.937693 -119.679904 254 2207ft 2kts
07-Jan-20 21:47 34.940069 -119.685966 295 2225ft 100kts
07-Jan-20 21:48 34.946811 -119.712126 285 2931ft 115kts
07-Jan-20 21:49 34.956391 -119.739545 295 3553ft 111kts
07-Jan-20 21:50 34.963192 -119.759796 293 4515ft 100kts
07-Jan-20 21:51 34.969274 -119.778836 292 5335ft 97kts
07-Jan-20 21:52 34.975187 -119.797560 292 6113ft 94kts
07-Jan-20 21:53 34.980887 -119.815672 291 6859ft 92kts
07-Jan-20 21:54 34.986599 -119.833855 291 7577ft 90kts
07-Jan-20 21:55 34.992020 -119.851107 290 8202ft 91kts
07-Jan-20 21:56 34.998272 -119.871016 290 8557ft 123kts
07-Jan-20 21:57 35.005878 -119.895402 290 8737ft 168kts
07-Jan-20 21:58 35.015257 -119.925103 290 8531ft 167kts
07-Jan-20 21:59 35.025344 -119.957292 290 8483ft 165kts
07-Jan-20 22:00 35.035820 -119.990798 290 8467ft 163kts
07-Jan-20 22:01 35.045431 -120.021577 290 8486ft 163kts
07-Jan-20 22:02 35.055650 -120.054306 290 8491ft 165kts
07-Jan-20 22:03 35.065564 -120.086111 290 8486ft 167kts
07-Jan-20 22:04 35.074232 -120.113951 290 8485ft 167kts
07-Jan-20 22:05 35.082276 -120.139808 290 8487ft 167kts
07-Jan-20 22:06 35.090064 -120.164866 290 8487ft 167kts
07-Jan-20 22:07 35.098576 -120.192279 290 8479ft 167kts
07-Jan-20 22:08 35.109435 -120.227287 290 8270ft 174kts
07-Jan-20 22:09 35.120247 -120.262182 290 7989ft 179kts
07-Jan-20 22:10 35.131165 -120.297465 290 7491ft 169kts
07-Jan-20 22:11 35.140790 -120.328645 291 6926ft 161kts
07-Jan-20 22:12 35.150478 -120.360016 291 6358ft 155kts
07-Jan-20 22:14 35.158686 -120.386660 291 5711ft 127kts
07-Jan-20 22:15 35.164524 -120.405646 292 4890ft 109kts
07-Jan-20 22:16 35.169721 -120.422551 292 4056ft 102kts
07-Jan-20 22:17 35.174601 -120.440816 289 3211ft 103kts
07-Jan-20 22:18 35.179566 -120.460113 289 2774ft 123kts
07-Jan-20 22:19 35.185604 -120.483170 289 2636ft 146kts
07-Jan-20 22:20 35.192565 -120.509199 289 2542ft 144kts
07-Jan-20 22:21 35.197721 -120.528819 289 1992ft 104kts
07-Jan-20 22:22 35.202322 -120.546795 289 1674ft 111kts
07-Jan-20 22:23 35.207585 -120.567862 283 1543ft 123kts
07-Jan-20 22:24 35.210584 -120.588897 281 1095ft 111kts
07-Jan-20 22:25 35.217169 -120.606823 305 818ft 112kts
07-Jan-20 22:26 35.225995 -120.621225 306 558ft 105kts
07-Jan-20 22:27 35.233382 -120.633957 302 250ft 87kts
07-Jan-20 22:28 35.237359 -120.639942 9 216ft 9kts
07-Jan-20 22:29 35.236853 -120.638241 124 216ft 14kts
07-Jan-20 22:30 35.236169 -120.636052 99 216ft 9kts
07-Jan-20 22:31 35.236051 -120.635402 307 216ft 0kts

Navigation Log

Ident Type
Flight plan parsing failed, navigation log unavailable